Rosehill, Kansas
Current Conditions -  °F | °C
As of 8:58 AM on Wednesday 22 Oct 2014 (Local Time) from KIAB Reporting Station
Clear Clear  
Wind Chill: 60°   Ceiling: Unl
Heat Index: 60°   Visibility: 10mi
Dew Point: 60°   Wind: 8mph
Humidity: 100%   Direction: 140°SE
Pressure: 30.13"   Gusts: NA
Location:  37.5599°N, 97.0971°W
Report Text: KIAB 221358Z AUTO 14007KT 10SM CLR 15/15 A3013 RMK AO2 SLP199 T01540154
Loading
Personal Weather Stations






























Interactive Weather Map
Tropical Storm Tracking
New forecast layout! Learn more

10-Day Weather Forecast

Advertisements
Track Severe Weather on mobile